Terminal Aerodrome Forecast
Issued by NWS

Home | Current Version | Previous Version | Text Only | Print | Product List | Glossary On
Versions: 1 2 3 4 5 6 7 8 9 10 11 12 13 14 15 16 17 18 19 20 21
000
FTUS43 KMKX 272320
TAFUES
TAF
KUES 272320Z 2800/2824 23007KT P6SM FEW060
     FM281000 19006KT P6SM FEW150
     FM281200 18010KT P6SM BKN150 WS020/21035KT
     FM281400 18012G20KT P6SM VCTS BKN060CB
     FM281600 18014G25KT P6SM -SHRA VCTS BKN060CB
     FM282100 19017G28KT P6SM SHRA VCTS BKN060CB=

USA.gov is the U.S. government's official web portal to all federal, state and local government web resources and services.